createdAt,value
2018-07-22T04:37:51.811Z,13.35
2018-07-22T04:40:20.268Z,15.28
2018-07-22T04:42:48.955Z,16.95
2018-07-22T04:45:17.513Z,15.70
2018-07-22T04:47:46.311Z,15.88
2018-07-22T04:50:14.839Z,16.87
2018-07-22T04:52:45.371Z,15.17
2018-07-22T04:55:23.183Z,16.90
2018-07-22T04:57:52.445Z,17.93
2018-07-22T05:00:20.875Z,15.33
2018-07-22T05:02:49.694Z,17.00
2018-07-22T05:05:18.195Z,16.85
2018-07-22T05:07:46.658Z,17.65
2018-07-22T05:10:15.153Z,17.53
2018-07-22T05:12:43.632Z,15.93
2018-07-22T05:15:12.199Z,16.05
2018-07-22T05:17:40.683Z,15.88
2018-07-22T05:20:10.535Z,15.38
2018-07-22T05:22:39.046Z,14.50
2018-07-22T05:25:07.477Z,14.83
2018-07-22T05:27:36.183Z,15.50
2018-07-22T05:30:04.731Z,17.47
2018-07-22T05:32:33.356Z,16.35
2018-07-22T05:35:01.968Z,15.80
2018-07-22T05:37:30.872Z,15.43
2018-07-22T05:40:01.018Z,16.70
2018-07-22T05:42:29.657Z,15.70
2018-07-22T05:44:58.316Z,17.37
2018-07-22T05:47:27.623Z,15.07
2018-07-22T05:49:56.159Z,18.50
2018-07-22T05:52:24.841Z,14.53
2018-07-22T05:58:04.420Z,14.58
2018-07-22T06:00:34.026Z,14.50
2018-07-22T06:03:03.129Z,15.60
2018-07-22T06:05:31.802Z,15.03
2018-07-22T06:08:00.579Z,14.65
2018-07-22T06:10:29.080Z,18.25
2018-07-22T06:12:58.794Z,17.43
2018-07-22T06:15:33.013Z,16.02
2018-07-22T06:18:01.431Z,16.97
2018-07-22T06:20:29.895Z,16.45
2018-07-22T06:22:58.692Z,15.60
2018-07-22T06:25:27.319Z,15.87
2018-07-22T06:27:56.986Z,14.47
2018-07-22T06:30:25.675Z,15.25
2018-07-22T06:32:54.227Z,14.80
2018-07-22T06:38:15.655Z,15.78
2018-07-22T06:40:44.376Z,14.83
2018-07-22T06:43:13.939Z,14.25
2018-07-22T06:45:42.671Z,14.60
2018-07-22T06:48:11.805Z,13.83
2018-07-22T06:50:40.352Z,14.10
2018-07-22T06:53:08.989Z,12.80
2018-07-22T06:55:37.824Z,13.60
2018-07-22T06:58:06.475Z,12.20
2018-07-22T07:00:34.989Z,12.05
2018-07-22T07:03:03.587Z,11.00
2018-07-22T07:05:32.169Z,12.13
2018-07-22T07:08:00.706Z,10.67
2018-07-22T07:10:29.149Z,11.03
2018-07-22T07:12:57.724Z,11.00
2018-07-22T07:15:31.418Z,10.75
2018-07-22T07:18:00.002Z,10.83
2018-07-22T07:20:28.881Z,10.72
2018-07-22T07:22:58.056Z,11.03
2018-07-22T07:25:49.272Z,11.03
2018-07-22T07:28:18.329Z,12.58
2018-07-22T07:30:47.149Z,12.43
2018-07-22T07:33:16.117Z,10.60
2018-07-22T07:35:45.167Z,10.75
2018-07-22T07:38:13.724Z,10.10
2018-07-22T07:40:42.433Z,9.25
2018-07-22T07:43:10.962Z,9.08
2018-07-22T07:45:39.475Z,8.57
2018-07-22T07:48:08.320Z,7.95
2018-07-22T07:50:37.568Z,7.40
2018-07-22T07:53:06.089Z,7.42
2018-07-22T07:55:35.508Z,7.63
2018-07-22T07:58:04.262Z,7.50
2018-07-22T08:00:33.503Z,7.28
2018-07-22T08:03:02.078Z,7.10
2018-07-22T08:05:30.966Z,6.80
2018-07-22T08:07:59.707Z,6.90
2018-07-22T08:10:28.783Z,6.78
2018-07-22T08:12:57.332Z,6.87
2018-07-22T08:15:40.015Z,6.80
2018-07-22T08:18:08.844Z,6.70
2018-07-22T08:20:37.414Z,7.28
2018-07-22T08:23:07.850Z,7.40
2018-07-22T08:25:37.349Z,7.28
2018-07-22T08:28:06.422Z,7.85
2018-07-22T08:30:35.299Z,9.80
2018-07-22T08:33:04.238Z,8.80
2018-07-22T08:35:38.300Z,8.20
2018-07-22T08:38:11.216Z,7.62
2018-07-22T08:40:40.077Z,8.03
2018-07-22T08:43:08.911Z,7.75
2018-07-22T08:45:37.451Z,8.30
2018-07-22T08:48:06.606Z,7.62
2018-07-22T08:50:35.355Z,8.98
2018-07-22T08:53:04.126Z,8.68
2018-07-22T08:55:32.943Z,8.27
2018-07-22T08:58:02.342Z,10.35
2018-07-22T09:00:30.792Z,9.50
2018-07-22T09:03:00.666Z,9.20
2018-07-22T09:05:47.861Z,9.75
2018-07-22T09:08:16.507Z,9.20
2018-07-22T09:10:45.050Z,9.03
2018-07-22T09:13:14.853Z,10.63
2018-07-22T09:15:43.441Z,9.50
2018-07-22T09:18:12.199Z,9.33
2018-07-22T09:20:40.859Z,8.73
2018-07-22T09:23:10.598Z,8.40
2018-07-22T09:25:39.448Z,8.80
2018-07-22T09:28:08.384Z,8.38
2018-07-22T09:30:38.027Z,8.93
2018-07-22T09:33:08.203Z,8.67
2018-07-22T09:35:37.284Z,9.80
2018-07-22T09:38:06.037Z,11.03
2018-07-22T09:40:34.961Z,8.40
2018-07-22T09:43:03.698Z,9.18
2018-07-22T09:45:37.478Z,9.00
2018-07-22T09:48:06.582Z,8.90
2018-07-22T09:50:35.889Z,8.70
2018-07-22T09:53:05.068Z,8.95
2018-07-22T09:55:43.106Z,9.35
2018-07-22T09:58:12.694Z,9.05
2018-07-22T10:00:46.808Z,8.48
2018-07-22T10:03:15.440Z,8.65
2018-07-22T10:05:44.570Z,9.58
2018-07-22T10:08:13.740Z,9.03
2018-07-22T10:10:43.106Z,9.63
2018-07-22T10:13:11.752Z,9.95
2018-07-22T10:15:41.470Z,9.55
2018-07-22T10:18:10.488Z,9.97
2018-07-22T10:20:39.214Z,9.73
2018-07-22T10:23:08.556Z,9.87
2018-07-22T10:25:47.458Z,9.77
2018-07-22T10:31:07.618Z,10.53
2018-07-22T10:33:36.301Z,10.67
2018-07-22T10:36:05.328Z,11.30
2018-07-22T10:38:34.249Z,12.20
2018-07-22T10:41:03.589Z,11.22
2018-07-22T10:43:33.744Z,10.85
2018-07-22T10:46:03.386Z,11.43
2018-07-22T10:48:37.858Z,10.23
2018-07-22T10:51:06.655Z,11.27
2018-07-22T10:53:44.670Z,10.70
2018-07-22T10:56:32.454Z,11.40
2018-07-22T10:59:01.040Z,11.55
2018-07-22T11:01:34.008Z,10.90
2018-07-22T11:04:02.570Z,9.90
2018-07-22T11:06:37.134Z,10.48
2018-07-22T11:09:08.891Z,10.70
2018-07-22T11:11:37.731Z,11.40
2018-07-22T11:14:06.219Z,11.00
2018-07-22T11:16:34.959Z,11.17
2018-07-22T11:19:03.579Z,11.38
2018-07-22T11:21:32.682Z,10.93
2018-07-22T11:24:04.269Z,11.30
2018-07-22T11:26:33.034Z,12.18
2018-07-22T11:29:01.530Z,11.67
2018-07-22T11:31:30.258Z,11.60
2018-07-22T11:33:59.013Z,11.70
2018-07-22T11:36:32.666Z,11.10
2018-07-22T11:39:03.220Z,12.63
2018-07-22T11:41:31.815Z,13.30
2018-07-22T11:44:00.426Z,11.40
2018-07-22T11:46:28.941Z,11.43
2018-07-22T11:48:57.533Z,11.10
2018-07-22T11:51:26.275Z,11.48
2018-07-22T11:53:55.173Z,11.77
2018-07-22T11:56:23.921Z,12.58
2018-07-22T11:58:54.066Z,12.58
2018-07-22T12:01:23.515Z,12.15
2018-07-22T12:03:53.266Z,12.53
2018-07-22T12:06:21.926Z,11.87
2018-07-22T12:08:50.764Z,12.13
2018-07-22T12:11:19.879Z,12.53
2018-07-22T12:13:48.691Z,12.10
2018-07-22T12:16:17.831Z,11.65
2018-07-22T12:18:46.683Z,12.00
2018-07-22T12:21:15.386Z,11.53
2018-07-22T12:23:48.885Z,12.60
2018-07-22T12:26:19.471Z,11.63
2018-07-22T12:28:48.088Z,12.63
2018-07-22T12:31:18.507Z,11.95
2018-07-22T12:33:46.972Z,11.75
2018-07-22T12:36:15.569Z,11.15
2018-07-22T12:38:44.157Z,10.90
2018-07-22T12:41:12.939Z,10.75
2018-07-22T12:43:41.771Z,11.35
2018-07-22T12:46:15.379Z,10.85
2018-07-22T12:48:44.361Z,11.10
2018-07-22T12:51:13.574Z,9.65
2018-07-22T12:53:42.448Z,9.50
2018-07-22T12:56:11.177Z,9.43
2018-07-22T12:58:40.223Z,9.48
2018-07-22T13:01:09.161Z,9.63
2018-07-22T13:03:38.581Z,11.25
2018-07-22T13:06:07.277Z,9.83
2018-07-22T13:08:36.099Z,9.50
2018-07-22T13:11:04.536Z,9.70
2018-07-22T13:13:33.178Z,8.98
2018-07-22T13:16:01.794Z,9.35
2018-07-22T13:18:30.466Z,9.30
2018-07-22T13:20:59.104Z,8.93
2018-07-22T13:23:27.610Z,9.23
2018-07-22T13:25:56.211Z,9.73
2018-07-22T13:28:24.607Z,9.73
2018-07-22T13:30:53.109Z,9.25
2018-07-22T13:33:21.521Z,8.98
2018-07-22T13:35:49.963Z,9.05
2018-07-22T13:38:18.836Z,9.10
2018-07-22T13:40:48.218Z,8.15
2018-07-22T13:43:16.732Z,8.35
2018-07-22T13:45:45.905Z,7.95
2018-07-22T13:48:14.309Z,7.87
2018-07-22T13:50:42.727Z,8.38
2018-07-22T13:53:11.247Z,8.40
2018-07-22T13:55:39.825Z,8.03
2018-07-22T13:58:08.225Z,8.25
2018-07-22T14:00:37.201Z,8.00
2018-07-22T14:03:05.712Z,7.75
2018-07-22T14:05:34.166Z,8.15
2018-07-22T14:08:02.642Z,9.08
2018-07-22T14:10:31.345Z,7.95
2018-07-22T14:12:59.808Z,8.43
2018-07-22T14:15:28.506Z,8.57
2018-07-22T14:17:57.342Z,8.10
2018-07-22T14:20:26.032Z,8.30
2018-07-22T14:22:54.381Z,8.45
2018-07-22T14:25:23.302Z,8.50
2018-07-22T14:27:51.913Z,8.03
2018-07-22T14:30:20.325Z,8.00
2018-07-22T14:32:48.717Z,7.93
2018-07-22T14:35:17.337Z,8.27
2018-07-22T14:37:45.823Z,8.35
2018-07-22T14:40:14.367Z,8.08
2018-07-22T14:42:42.719Z,8.08
2018-07-22T14:45:11.272Z,8.00
2018-07-22T14:47:39.698Z,7.42
2018-07-22T14:50:08.383Z,7.40
2018-07-22T14:52:36.836Z,7.72
2018-07-22T14:55:05.323Z,8.10
2018-07-22T14:57:33.793Z,7.67
2018-07-22T15:00:02.292Z,8.97
2018-07-22T15:02:30.689Z,8.20
2018-07-22T15:04:59.323Z,8.00
2018-07-22T15:07:27.832Z,7.87
2018-07-22T15:09:56.280Z,8.05
2018-07-22T15:12:24.757Z,7.60
2018-07-22T15:14:53.516Z,8.08
2018-07-22T15:17:21.912Z,8.10
2018-07-22T15:19:50.328Z,8.10
2018-07-22T15:22:18.775Z,8.50
2018-07-22T15:24:47.306Z,8.47
2018-07-22T15:27:21.222Z,9.00
2018-07-22T15:29:58.020Z,8.53
2018-07-22T15:32:28.031Z,8.73
2018-07-22T15:34:59.037Z,8.40
2018-07-22T15:37:28.171Z,9.08
2018-07-22T15:39:57.569Z,8.50
2018-07-22T15:42:30.490Z,9.97
2018-07-22T15:45:14.992Z,10.05
2018-07-22T15:47:55.033Z,9.18
2018-07-22T15:50:30.842Z,9.28
2018-07-22T15:53:06.252Z,9.35
2018-07-22T15:55:47.163Z,8.60
2018-07-22T15:58:23.117Z,9.88
2018-07-22T16:00:54.739Z,10.23
2018-07-22T16:03:31.711Z,8.88
2018-07-22T16:06:09.933Z,9.05
2018-07-22T16:11:30.049Z,9.40
2018-07-22T16:14:03.511Z,8.23
2018-07-22T16:16:42.346Z,8.63
2018-07-22T16:22:43.665Z,8.40
2018-07-22T16:55:15.417Z,7.83
2018-07-22T16:57:47.375Z,7.90
2018-07-22T17:00:23.289Z,8.38
2018-07-22T17:02:56.737Z,8.58
2018-07-22T17:05:35.429Z,8.70
2018-07-22T17:08:10.205Z,8.43
2018-07-22T17:10:41.365Z,8.17
2018-07-22T17:13:13.157Z,8.50
2018-07-22T17:16:00.663Z,8.68
2018-07-22T17:18:32.052Z,8.43
2018-07-22T17:21:08.496Z,9.88
2018-07-22T17:23:44.439Z,11.75
2018-07-22T17:26:14.563Z,9.33
2018-07-22T17:29:00.546Z,8.95
2018-07-22T17:31:35.750Z,9.18
2018-07-22T17:39:42.906Z,7.80
2018-07-22T17:45:26.896Z,7.80
2018-07-22T18:03:33.856Z,11.53
2018-07-22T18:11:40.090Z,10.40
2018-07-22T18:14:09.342Z,11.05
2018-07-22T18:16:42.719Z,11.33
2018-07-22T18:19:12.233Z,10.05
2018-07-22T18:21:41.723Z,9.85
2018-07-22T18:24:12.171Z,8.77
2018-07-22T18:26:48.714Z,9.00
2018-07-22T18:29:23.455Z,9.48
2018-07-22T18:31:52.622Z,9.18
2018-07-22T18:34:25.528Z,8.85
2018-07-22T18:37:05.189Z,8.87
2018-07-22T18:39:45.388Z,9.68
2018-07-22T18:42:21.051Z,8.77
2018-07-22T18:44:57.339Z,8.80
2018-07-22T18:47:27.893Z,9.35
2018-07-22T18:49:57.810Z,9.85
2018-07-22T18:52:27.752Z,9.70
2018-07-22T18:54:59.378Z,10.00
2018-07-22T18:57:34.297Z,9.93
2018-07-22T19:00:05.614Z,9.45
2018-07-22T19:02:34.828Z,9.25
2018-07-22T19:05:09.843Z,8.68
2018-07-22T19:07:42.860Z,8.77
2018-07-22T19:10:19.052Z,9.08
2018-07-22T19:13:01.094Z,9.20
2018-07-22T19:15:42.011Z,10.05
2018-07-22T19:18:18.461Z,9.58
2018-07-22T19:20:49.411Z,9.38
2018-07-22T19:23:25.615Z,9.45
2018-07-22T19:28:58.785Z,9.73
2018-07-22T19:31:39.322Z,10.25
2018-07-22T19:37:17.166Z,9.83
2018-07-22T19:39:59.585Z,10.03
2018-07-22T19:45:19.829Z,9.80
2018-07-22T19:53:20.236Z,10.10
2018-07-22T19:56:07.596Z,9.93
2018-07-22T19:58:44.792Z,10.93
2018-07-22T20:01:15.068Z,10.60
2018-07-22T20:06:24.368Z,11.30
2018-07-22T20:08:57.513Z,11.20
2018-07-22T20:11:27.796Z,12.37
2018-07-22T20:16:50.079Z,12.13
2018-07-22T20:19:25.383Z,11.97
2018-07-22T20:21:57.735Z,12.23
2018-07-22T20:24:31.297Z,12.18
2018-07-22T20:27:01.150Z,12.60
2018-07-22T20:29:37.110Z,12.50
2018-07-22T20:32:08.565Z,12.53
2018-07-22T20:34:40.418Z,12.18
2018-07-22T20:37:15.845Z,12.40
2018-07-22T20:39:45.462Z,12.23
2018-07-22T20:42:15.077Z,12.53
2018-07-22T20:44:47.929Z,12.45
2018-07-22T20:47:17.426Z,12.50
2018-07-22T20:49:54.099Z,13.20
2018-07-22T20:52:27.802Z,11.88
2018-07-22T20:55:01.472Z,12.40
2018-07-22T20:57:31.537Z,12.50
2018-07-22T21:00:01.049Z,12.83
2018-07-22T21:02:30.548Z,13.07
2018-07-22T21:05:08.001Z,13.48
2018-07-22T21:07:45.467Z,13.13
2018-07-22T21:10:22.209Z,12.43
2018-07-22T21:13:05.707Z,11.90
2018-07-22T21:15:35.722Z,12.63
2018-07-22T21:18:05.907Z,12.90
2018-07-22T21:20:36.543Z,12.53
2018-07-22T21:23:07.777Z,12.70
2018-07-22T21:25:40.469Z,13.08
2018-07-22T21:28:24.274Z,12.40
2018-07-22T21:30:56.667Z,12.47
2018-07-22T21:33:30.015Z,13.43
2018-07-22T21:36:14.413Z,12.45
2018-07-22T21:38:52.097Z,12.90
2018-07-22T21:41:23.133Z,12.70
2018-07-22T21:43:53.633Z,12.47
2018-07-22T21:46:23.005Z,12.67
2018-07-22T21:48:55.566Z,13.13
2018-07-22T21:51:27.261Z,12.47
2018-07-22T21:53:58.265Z,12.75
2018-07-22T21:56:34.057Z,13.00
2018-07-22T21:59:06.696Z,13.83
2018-07-22T22:01:44.149Z,13.03
2018-07-22T22:06:54.065Z,13.75
2018-07-22T22:12:09.287Z,13.55
2018-07-22T22:14:40.190Z,13.58
2018-07-22T22:17:20.318Z,13.55
2018-07-22T22:19:53.001Z,13.63
2018-07-22T22:25:07.758Z,14.67
2018-07-22T22:27:38.509Z,14.63
2018-07-22T22:30:09.611Z,14.80
2018-07-22T22:32:43.022Z,15.25
2018-07-22T22:35:19.038Z,15.15
2018-07-22T22:37:48.465Z,15.35
2018-07-22T22:40:17.689Z,15.65
2018-07-22T22:42:47.688Z,15.95
2018-07-22T22:45:35.102Z,14.97
2018-07-22T22:48:04.505Z,17.27
2018-07-22T22:50:32.985Z,17.47
2018-07-22T22:53:01.511Z,16.77
2018-07-22T22:55:29.990Z,18.07
2018-07-22T22:58:09.806Z,19.12
2018-07-22T23:00:38.306Z,19.20
2018-07-22T23:03:06.823Z,17.30
2018-07-22T23:05:35.351Z,18.20
2018-07-22T23:08:03.985Z,18.40
2018-07-22T23:10:32.575Z,17.90
2018-07-22T23:13:00.116Z,18.48
2018-07-22T23:15:28.800Z,17.70
2018-07-22T23:17:56.550Z,18.37
2018-07-22T23:20:25.073Z,18.92
2018-07-22T23:22:53.580Z,20.45
2018-07-22T23:25:27.489Z,19.40
2018-07-22T23:27:55.988Z,19.75
2018-07-22T23:30:24.580Z,20.10
2018-07-22T23:32:53.036Z,21.05
2018-07-22T23:35:21.644Z,20.08
2018-07-22T23:37:50.200Z,20.45
2018-07-22T23:40:18.696Z,22.25
2018-07-22T23:42:47.341Z,22.60
2018-07-22T23:45:20.861Z,23.00
2018-07-22T23:47:49.554Z,22.27
2018-07-22T23:50:18.269Z,21.87
2018-07-22T23:52:46.772Z,21.67
2018-07-22T23:55:15.322Z,20.52
2018-07-22T23:57:43.812Z,20.77
